Timeline UpdatesTrip UpdatesNews PostsPvt PostsTravel TipsAdmin PostsConv PostsFollowed PostsChat RequestsBlog PostsPNR Posts

Disclaimer
Search
 
 
Sat Aug 2, 2014 08:00:23 ISTHomeTrainsΣChainsAtlasPNRForumGalleryNewsFAQTripsMembersLoginFeedback
No Recent News for this Train
Other Trains in the News **new
Latest...
Experimental Stop provided at Pudukkad.
Fri Feb 21, 2014 (07:40PM)
⇐ Return Journey: Train# 16650

16649/Parashuram Express

Feb 21 2014 (7:39PM)
Change Departure Station:
Change Arrival Station:
Post a Train Travel TipPost a Train Travel Tip **new
Post a Comment/Question/Picture/VideoPost a Comment/Question/Picture/Video
Pantry/Catering
✓ Pantry Car Avbl
✓ Catering Avbl
RSA - Rake Sharing
Rake/Coach Composition
Loco SLR GS GS GS GS GS GS GS GS GS PC D1 C1 C2 F1 GS GS GS GS SLR
Loco
MAQ-SRR :ERS WDM 3A/ED WDM 3A/D SRR-NCJ: ED/RPM WAP 4
News    PNR    Forum    Time-Table    Availability    Fare Chart    Map    Arr/Dep History    Trips    Gallery    ΣChains    X/O    Timeline    
Travel Time: 11h 44m    40 halts    Distance: 522 km    Avg Speed: 44 km/hr
Type: Mail/Express
Zone: SR/Southern
Departs @ 06:41 (Avg 13m late)
Platform# 2
SMTWTFS
Payangadi/PAZ 
Arrives @ 18:25 (Avg 39m late)
Platform# 5
SMTWTFS
Trivandrum Central/TVC 

40 halts. 102 intermediate Stations between Payangadi and Trivandrum Central

Show ALL intermediate Stations  Show Old Time-Table

#CodeStation NameX/OArrivesAvgDepartsAvgHaltPFDay#KmSpeedElevZoneAddress
1MAQMangalore Central (4)  -04:50+311-109.86114mSRMangalore 575001, Karnataka
2KGQKasaragod (3)X  05:35+705:36+81m--1-64.16918mSRTel: 04994 220800, Kerala
3KZEKanhangad (3)  05:56+1105:57+131m--1-41.05615mSRKanhangad, Kerala
4NLENileshwar (2)X  06:07+1406:08+141m--1-31.76012mSRNileswaram, Kerala
5PAYPayyanur (3)  06:28+1206:29+131m--1-11.7640mSRKannur District, Kerala
6PAZ»Payangadi (2)»  06:40+1206:41+131m210.06412mSRKannur District, Kerala
7KPQKannapuram (2)X  06:48+1406:49+151m217.5339mSRKannur District, Kerala
8CANKannur Main (3)  07:15+507:20+115m3122.06514mSRKannur Tel: 0497 2705555, Kerala
9TLYThalassery (2)  07:39+1107:40+121m--142.7629mSRKannur, Kerala
10MAHEMahe (2)  07:49+1307:50+131m--151.96416mSRMahe, Puducherry
11BDJVadakara (2)X  08:02+1208:03+131m1164.88211mSRCalicut / Station Ph No : 0496-2524254, Kerala
12QLDKoyilandy (3)  08:19+1608:20+171m--186.73611mSRQuilandi, Kerala
13CLTKozhikode Main (4)X  09:00+409:05+85m31111.04311mSRCalicut Tel: 0495 2701234, Kerala
14FKFerok (2)X  09:19+909:20+91m--1121.05119mSRFeroke, Kerala
15VLIVallikunnu (2)  09:32-09:33-1m--1131.24313mSRVallikkunnu, Kerala
16PGIParappangadi (2)  09:40+1009:41+111m--1136.26119mSRParappanangadi, Kerala
17TATanur (3)X  09:49+1109:50+121m--1144.35311mSRMalappuram, Kerala
18TIRTirur (3)  09:59+1110:00+121m21152.3489mSRTel: 0494 2422240, Kerala
19KTUKuttippuram (2)  10:19+1010:20+111m21167.37917mSRKuttippuram, Kerala
20PTBPattambi (2)X  10:34+1410:35+141m21185.82021mSRPattambi, Kerala
21SRRShoranur Junction (7)XO11:10+011:15+125m61197.45226mSRShoranur ph.no 0466-2222913, Kerala
22WKIWadakkanchery (2)  11:34+2411:35+251m11213.95840mSRWadackanchery, Kerala
23TCRThrissur (4)X  11:52+2611:54+262m11230.3586mSRThrissur Tel: 0487 2423150, Kerala
24PUKPudukkad (2)X  12:08+2712:09+281m--1243.86111mSRPudukad, Kerala
25IJKIrinjalakkuda (2)  12:19+2912:20+301m21254.04818mSRKalletumkara, Kerala
26CKIChalakkudy (3)  12:28+2912:29+301m11260.5339mSRPh: 0480- 2701368, Kerala
27DINRDivine Nagar (2)X  12:33+1412:34+141m11262.77816mSRThrissur, Kerala
28AFKAngamaly for Kalady (3)  12:44+3412:45+351m21275.73716mSRPhone: 0484-2452340, Kerala
29AWYAluva (3)X  13:00+3013:02+302m11284.93112mSRPh: 0484-2624141, Kerala
30ERNErnakulam Town (North) (2)  13:35+1913:40+195m21301.7399mSRTel: 0484 2395198, Kerala
31TRTRThrippunithura (2)13:55+2413:56+241m--1311.4645mSRErnakulam, Kerala
32PVRDPiravom Road  14:14+3114:15+331m11330.56512mSRKottayam, Kerala
33ETMEttumanur (1)  14:34+4214:35+431m11351.14228mSRKottayam, Kerala
34KTYMKottayam (3)  14:50+4314:53+443m11361.76715mSRTel: 0481 2563535, Kerala
35CGYChanganassery (3)X  15:09+5015:10+521m21379.55211mSRPh: 0481- 2420108, Kerala
36TRVLTiruvalla (2)X  15:19+5315:20+561m11387.43927mSRPh: 0469-2601314, Kerala
37CNGRChengannur (3)  15:34+5415:35+551m11396.5546mSRPh: 0479-2452340, Kerala
38MVLKMavelikara (3)X  15:49+5415:50+541m31409.04613mSRMavelikkara Ph: 0479-2302249, Kerala
39KYJKayamkulam Junction (5)  16:00+5316:02+552m41416.76311mSRAlappuzha Ph;0479-2442042, Kerala
40KPYKarunagappalli (2)X  16:15+5716:16+581m21430.45712mSRKollam Dist, Kerala
41STKTSasthamkotta (2)  16:24+5916:25+591m11438.0290mSRKollam Dist, Kerala
42QLNKollam Junction (6)X  17:05+4017:10+405m11457.57416mSRKollam 0474-2746194, Kerala
43PVUParavur (3)17:20+4317:21+431m--1469.98418mSRParavoor, Kerala
44VAKVarkala Sivagiri (3)X  17:29+4517:30+461m21481.17252mSREdava Kappil Road, Kerala
45KZKKazhakkuttam (3)X17:53+4817:54+491m--1508.86620mSRKulathoor ► Kazhakootam Road Kazhakootam PO Thiruvananthapuram, Kerala
46TVPThiruvananthapuram Pettah (2)  18:04+1318:05+131m11519.7718mSRTrivandrum Ph: 04712470181, Kerala
47TVC•Trivandrum Central (5)•X  18:25+3918:35+4010m51522.15412mSRThiruvananthapuram 695001, Kerala
48NYYNeyyattinkara  18:54+4718:55+501m--1539.37311mSRThiruvananthapuram, Kerala
49PASAParassalaX  19:04+5519:05+561m--1550.23145mSRParassala, Kerala
50KZTKulitturai  19:24+4719:25+501m--1560.14729mSRMarthandam, Tamil Nadu
51ERLEraniel  19:44+4519:45+451m--1574.92219mSRKanyakumari, Tamil Nadu
52NCJNagercoil Junction (4)  20:35+13---1593.2-22mSRNagercoil-629002, Tamil Nadu
Scroll to Top
Scroll to Bottom